sensor_id;sensor_type;location;lat;lon;timestamp;pressure;altitude;pressure_sealevel;temperature;humidity
56142;BME280;42018;48.588;10.836;2023-06-19T00:00:14;96419.25;;;22.19;47.12
56142;BME280;42018;48.588;10.836;2023-06-19T00:03:01;96416.53;;;22.04;48.99
56142;BME280;42018;48.588;10.836;2023-06-19T00:05:46;96416.22;;;21.77;50.37
56142;BME280;42018;48.588;10.836;2023-06-19T00:08:31;96409.41;;;21.95;49.24
56142;BME280;42018;48.588;10.836;2023-06-19T00:11:17;96416.16;;;21.89;48.96
56142;BME280;42018;48.588;10.836;2023-06-19T00:14:03;96405.09;;;21.79;48.25
56142;BME280;42018;48.588;10.836;2023-06-19T00:16:48;96399.72;;;21.94;47.27
56142;BME280;42018;48.588;10.836;2023-06-19T00:19:35;96404.75;;;21.80;47.15
56142;BME280;42018;48.588;10.836;2023-06-19T00:22:21;96405.78;;;21.75;47.02
56142;BME280;42018;48.588;10.836;2023-06-19T00:25:07;96394.72;;;21.65;47.97
56142;BME280;42018;48.588;10.836;2023-06-19T00:27:52;96409.19;;;21.44;50.02
56142;BME280;42018;48.588;10.836;2023-06-19T00:30:37;96397.72;;;21.47;48.81
56142;BME280;42018;48.588;10.836;2023-06-19T00:33:23;96407.47;;;21.52;48.46
56142;BME280;42018;48.588;10.836;2023-06-19T00:36:13;96407.28;;;21.45;49.06
56142;BME280;42018;48.588;10.836;2023-06-19T00:38:59;96394.03;;;21.68;47.74
56142;BME280;42018;48.588;10.836;2023-06-19T00:41:44;96398.75;;;21.71;45.99
56142;BME280;42018;48.588;10.836;2023-06-19T00:44:30;96403.84;;;21.60;45.69
56142;BME280;42018;48.588;10.836;2023-06-19T00:47:15;96398.97;;;21.66;45.17
56142;BME280;42018;48.588;10.836;2023-06-19T00:50:00;96395.59;;;21.69;45.14
56142;BME280;42018;48.588;10.836;2023-06-19T00:52:46;96403.44;;;21.74;44.92
56142;BME280;42018;48.588;10.836;2023-06-19T00:55:32;96409.72;;;21.78;44.88
56142;BME280;42018;48.588;10.836;2023-06-19T00:58:18;96406.75;;;21.83;44.66
56142;BME280;42018;48.588;10.836;2023-06-19T01:01:04;96409.16;;;21.72;45.80
56142;BME280;42018;48.588;10.836;2023-06-19T01:03:50;96417.34;;;21.60;47.08
56142;BME280;42018;48.588;10.836;2023-06-19T01:10:02;96413.41;;;21.58;47.60
56142;BME280;42018;48.588;10.836;2023-06-19T01:12:52;96413.56;;;21.49;47.69
56142;BME280;42018;48.588;10.836;2023-06-19T01:15:41;96416.47;;;21.56;47.76
56142;BME280;42018;48.588;10.836;2023-06-19T01:18:27;96416.22;;;21.77;46.93
56142;BME280;42018;48.588;10.836;2023-06-19T01:21:16;96423.34;;;21.69;46.75
56142;BME280;42018;48.588;10.836;2023-06-19T01:24:01;96422.09;;;21.51;48.23
56142;BME280;42018;48.588;10.836;2023-06-19T01:26:47;96421.00;;;21.68;47.50
56142;BME280;42018;48.588;10.836;2023-06-19T01:29:32;96419.38;;;21.79;47.27
56142;BME280;42018;48.588;10.836;2023-06-19T01:32:22;96424.22;;;21.73;47.81
56142;BME280;42018;48.588;10.836;2023-06-19T01:35:11;96419.72;;;21.78;47.69
56142;BME280;42018;48.588;10.836;2023-06-19T01:37:59;96417.53;;;21.83;47.44
56142;BME280;42018;48.588;10.836;2023-06-19T01:40:45;96423.81;;;21.87;47.38
56142;BME280;42018;48.588;10.836;2023-06-19T01:43:32;96423.47;;;21.89;47.12
56142;BME280;42018;48.588;10.836;2023-06-19T01:46:18;96420.09;;;21.92;47.03
56142;BME280;42018;48.588;10.836;2023-06-19T01:49:07;96420.44;;;21.90;46.79
56142;BME280;42018;48.588;10.836;2023-06-19T01:51:53;96421.56;;;21.89;46.92
56142;BME280;42018;48.588;10.836;2023-06-19T01:54:39;96414.16;;;21.86;46.88
56142;BME280;42018;48.588;10.836;2023-06-19T01:57:25;96419.47;;;21.83;47.00
56142;BME280;42018;48.588;10.836;2023-06-19T02:00:11;96414.44;;;21.81;46.93
56142;BME280;42018;48.588;10.836;2023-06-19T02:02:57;96412.31;;;21.74;46.90
56142;BME280;42018;48.588;10.836;2023-06-19T02:05:42;96416.75;;;21.83;46.34
56142;BME280;42018;48.588;10.836;2023-06-19T02:08:28;96418.22;;;21.80;46.53
56142;BME280;42018;48.588;10.836;2023-06-19T02:11:13;96425.13;;;21.78;47.19
56142;BME280;42018;48.588;10.836;2023-06-19T02:13:59;96421.88;;;21.72;47.39
56142;BME280;42018;48.588;10.836;2023-06-19T02:16:44;96421.94;;;21.60;47.82
56142;BME280;42018;48.588;10.836;2023-06-19T02:19:29;96419.34;;;21.63;47.91
56142;BME280;42018;48.588;10.836;2023-06-19T02:22:15;96420.81;;;21.61;47.52
56142;BME280;42018;48.588;10.836;2023-06-19T02:25:00;96419.00;;;21.65;47.32
56142;BME280;42018;48.588;10.836;2023-06-19T02:27:45;96424.47;;;21.68;47.49
56142;BME280;42018;48.588;10.836;2023-06-19T02:30:31;96417.84;;;21.66;47.32
56142;BME280;42018;48.588;10.836;2023-06-19T02:33:16;96424.13;;;21.70;47.28
56142;BME280;42018;48.588;10.836;2023-06-19T02:36:02;96420.66;;;21.69;47.62
56142;BME280;42018;48.588;10.836;2023-06-19T02:38:48;96416.09;;;21.58;48.56
56142;BME280;42018;48.588;10.836;2023-06-19T02:41:34;96416.78;;;21.55;48.41
56142;BME280;42018;48.588;10.836;2023-06-19T02:44:20;96421.13;;;21.59;48.25
56142;BME280;42018;48.588;10.836;2023-06-19T02:47:05;96419.59;;;21.58;47.92
56142;BME280;42018;48.588;10.836;2023-06-19T02:49:51;96429.00;;;21.64;47.94
56142;BME280;42018;48.588;10.836;2023-06-19T02:52:36;96426.22;;;21.61;48.29
56142;BME280;42018;48.588;10.836;2023-06-19T02:55:21;96434.28;;;21.61;48.48
56142;BME280;42018;48.588;10.836;2023-06-19T02:58:07;96436.50;;;21.43;49.58
56142;BME280;42018;48.588;10.836;2023-06-19T03:00:52;96444.53;;;21.55;49.24
56142;BME280;42018;48.588;10.836;2023-06-19T03:03:37;96438.41;;;21.30;50.59
56142;BME280;42018;48.588;10.836;2023-06-19T03:06:23;96449.66;;;21.32;50.51
56142;BME280;42018;48.588;10.836;2023-06-19T03:09:08;96450.22;;;21.25;51.08
56142;BME280;42018;48.588;10.836;2023-06-19T03:11:57;96454.47;;;21.26;51.22
56142;BME280;42018;48.588;10.836;2023-06-19T03:14:42;96448.09;;;21.31;50.71
56142;BME280;42018;48.588;10.836;2023-06-19T03:17:27;96450.78;;;21.31;50.22
56142;BME280;42018;48.588;10.836;2023-06-19T03:20:13;96454.38;;;21.35;50.13
56142;BME280;42018;48.588;10.836;2023-06-19T03:22:58;96459.53;;;21.40;49.84
56142;BME280;42018;48.588;10.836;2023-06-19T03:25:44;96462.91;;;21.37;49.94
56142;BME280;42018;48.588;10.836;2023-06-19T03:28:29;96479.28;;;21.32;50.76
56142;BME280;42018;48.588;10.836;2023-06-19T03:31:15;96486.97;;;21.18;51.21
56142;BME280;42018;48.588;10.836;2023-06-19T03:34:00;96478.19;;;21.09;51.13
56142;BME280;42018;48.588;10.836;2023-06-19T03:36:45;96483.59;;;21.21;50.56
56142;BME280;42018;48.588;10.836;2023-06-19T03:39:31;96485.34;;;21.29;50.47
56142;BME280;42018;48.588;10.836;2023-06-19T03:42:16;96497.38;;;21.19;51.04
56142;BME280;42018;48.588;10.836;2023-06-19T03:45:01;96496.19;;;20.92;52.38
56142;BME280;42018;48.588;10.836;2023-06-19T03:47:47;96498.44;;;20.90;51.65
56142;BME280;42018;48.588;10.836;2023-06-19T03:50:32;96506.31;;;20.71;52.76
56142;BME280;42018;48.588;10.836;2023-06-19T03:53:17;96498.66;;;20.73;52.79
56142;BME280;42018;48.588;10.836;2023-06-19T03:56:03;96489.91;;;20.88;51.50
56142;BME280;42018;48.588;10.836;2023-06-19T03:58:48;96513.91;;;20.69;52.09
56142;BME280;42018;48.588;10.836;2023-06-19T04:01:34;96511.88;;;20.66;52.94
56142;BME280;42018;48.588;10.836;2023-06-19T04:04:19;96516.03;;;20.51;53.74
56142;BME280;42018;48.588;10.836;2023-06-19T04:07:05;96530.31;;;20.64;53.51
56142;BME280;42018;48.588;10.836;2023-06-19T04:09:50;96529.16;;;20.52;54.75
56142;BME280;42018;48.588;10.836;2023-06-19T04:12:36;96526.38;;;20.61;53.36
56142;BME280;42018;48.588;10.836;2023-06-19T04:15:22;96547.00;;;20.57;54.01
56142;BME280;42018;48.588;10.836;2023-06-19T04:18:07;96532.06;;;20.60;52.94
56142;BME280;42018;48.588;10.836;2023-06-19T04:20:53;96552.50;;;20.61;52.26
56142;BME280;42018;48.588;10.836;2023-06-19T04:23:38;96533.31;;;20.62;51.10
56142;BME280;42018;48.588;10.836;2023-06-19T04:26:24;96544.09;;;20.62;51.08
56142;BME280;42018;48.588;10.836;2023-06-19T04:29:09;96549.34;;;20.59;51.66
56142;BME280;42018;48.588;10.836;2023-06-19T04:32:02;96545.22;;;20.73;51.21
56142;BME280;42018;48.588;10.836;2023-06-19T04:34:56;96559.38;;;20.83;51.13
56142;BME280;42018;48.588;10.836;2023-06-19T04:37:42;96554.84;;;20.62;52.09
56142;BME280;42018;48.588;10.836;2023-06-19T04:40:27;96543.66;;;20.72;52.02
56142;BME280;42018;48.588;10.836;2023-06-19T04:43:13;96544.88;;;20.87;51.75
56142;BME280;42018;48.588;10.836;2023-06-19T04:45:58;96557.22;;;20.88;52.15
56142;BME280;42018;48.588;10.836;2023-06-19T04:48:44;96557.47;;;20.95;52.41
56142;BME280;42018;48.588;10.836;2023-06-19T04:51:31;96561.06;;;20.99;52.09
56142;BME280;42018;48.588;10.836;2023-06-19T04:54:17;96555.97;;;21.22;51.45
56142;BME280;42018;48.588;10.836;2023-06-19T04:57:03;96549.25;;;21.28;51.16
56142;BME280;42018;48.588;10.836;2023-06-19T04:59:48;96555.78;;;21.40;51.20
56142;BME280;42018;48.588;10.836;2023-06-19T05:02:34;96552.19;;;21.36;50.90
56142;BME280;42018;48.588;10.836;2023-06-19T05:05:19;96562.50;;;21.46;50.67
56142;BME280;42018;48.588;10.836;2023-06-19T05:08:04;96570.56;;;21.58;50.18
56142;BME280;42018;48.588;10.836;2023-06-19T05:10:50;96558.53;;;21.68;49.93
56142;BME280;42018;48.588;10.836;2023-06-19T05:13:35;96569.59;;;21.38;50.62
56142;BME280;42018;48.588;10.836;2023-06-19T05:16:20;96575.06;;;21.29;50.06
56142;BME280;42018;48.588;10.836;2023-06-19T05:19:08;96570.13;;;21.56;49.96
56142;BME280;42018;48.588;10.836;2023-06-19T05:21:53;96573.53;;;21.81;48.93
56142;BME280;42018;48.588;10.836;2023-06-19T05:24:38;96574.03;;;21.71;49.83
56142;BME280;42018;48.588;10.836;2023-06-19T05:27:24;96581.69;;;21.44;50.84
56142;BME280;42018;48.588;10.836;2023-06-19T05:30:09;96579.81;;;21.20;51.64
56142;BME280;42018;48.588;10.836;2023-06-19T05:32:55;96581.91;;;21.27;51.60
56142;BME280;42018;48.588;10.836;2023-06-19T05:35:42;96579.78;;;21.57;51.45
56142;BME280;42018;48.588;10.836;2023-06-19T05:38:28;96584.03;;;21.58;51.97
56142;BME280;42018;48.588;10.836;2023-06-19T05:41:15;96588.91;;;21.81;50.48
56142;BME280;42018;48.588;10.836;2023-06-19T05:44:01;96584.38;;;21.97;50.89
56142;BME280;42018;48.588;10.836;2023-06-19T05:46:46;96593.72;;;21.99;51.66
56142;BME280;42018;48.588;10.836;2023-06-19T05:49:32;96598.91;;;21.92;52.32
56142;BME280;42018;48.588;10.836;2023-06-19T05:52:17;96596.06;;;22.01;51.92
56142;BME280;42018;48.588;10.836;2023-06-19T05:55:03;96596.03;;;22.13;51.18
56142;BME280;42018;48.588;10.836;2023-06-19T05:57:48;96610.44;;;22.05;51.06
56142;BME280;42018;48.588;10.836;2023-06-19T06:00:33;96602.84;;;22.23;50.47
56142;BME280;42018;48.588;10.836;2023-06-19T06:03:19;96604.56;;;22.43;49.93
56142;BME280;42018;48.588;10.836;2023-06-19T06:06:04;96604.94;;;22.58;50.98
56142;BME280;42018;48.588;10.836;2023-06-19T06:08:49;96611.28;;;22.50;50.57
56142;BME280;42018;48.588;10.836;2023-06-19T06:11:36;96614.00;;;22.65;50.90
56142;BME280;42018;48.588;10.836;2023-06-19T06:14:23;96627.22;;;22.55;50.27
56142;BME280;42018;48.588;10.836;2023-06-19T06:17:08;96621.31;;;22.65;50.48
56142;BME280;42018;48.588;10.836;2023-06-19T06:19:53;96630.63;;;22.52;50.49
56142;BME280;42018;48.588;10.836;2023-06-19T06:22:40;96639.47;;;22.80;50.11
56142;BME280;42018;48.588;10.836;2023-06-19T06:25:25;96637.97;;;22.95;50.05
56142;BME280;42018;48.588;10.836;2023-06-19T06:28:11;96644.06;;;23.08;49.60
56142;BME280;42018;48.588;10.836;2023-06-19T06:30:57;96639.09;;;23.10;49.40
56142;BME280;42018;48.588;10.836;2023-06-19T06:33:42;96636.19;;;23.18;49.57
56142;BME280;42018;48.588;10.836;2023-06-19T06:36:28;96638.75;;;22.96;49.59
56142;BME280;42018;48.588;10.836;2023-06-19T06:39:13;96639.97;;;23.14;49.19
56142;BME280;42018;48.588;10.836;2023-06-19T06:41:58;96643.00;;;23.28;49.48
56142;BME280;42018;48.588;10.836;2023-06-19T06:44:44;96646.75;;;23.08;49.21
56142;BME280;42018;48.588;10.836;2023-06-19T06:47:30;96654.50;;;23.25;48.96
56142;BME280;42018;48.588;10.836;2023-06-19T06:50:15;96660.81;;;23.13;49.05
56142;BME280;42018;48.588;10.836;2023-06-19T06:53:00;96658.09;;;23.13;49.12
56142;BME280;42018;48.588;10.836;2023-06-19T06:55:46;96662.03;;;23.16;48.83
56142;BME280;42018;48.588;10.836;2023-06-19T06:58:31;96662.13;;;23.20;49.18
56142;BME280;42018;48.588;10.836;2023-06-19T07:01:16;96665.59;;;23.20;49.39
56142;BME280;42018;48.588;10.836;2023-06-19T07:04:02;96671.44;;;23.22;49.68
56142;BME280;42018;48.588;10.836;2023-06-19T07:06:47;96665.47;;;22.85;49.96
56142;BME280;42018;48.588;10.836;2023-06-19T07:09:33;96682.06;;;22.99;49.97
56142;BME280;42018;48.588;10.836;2023-06-19T07:12:18;96683.84;;;23.23;49.43
56142;BME280;42018;48.588;10.836;2023-06-19T07:15:04;96696.44;;;23.19;49.86
56142;BME280;42018;48.588;10.836;2023-06-19T07:17:50;96693.84;;;23.38;49.64
56142;BME280;42018;48.588;10.836;2023-06-19T07:20:35;96691.66;;;23.28;50.03
56142;BME280;42018;48.588;10.836;2023-06-19T07:23:21;96699.84;;;23.48;50.45
56142;BME280;42018;48.588;10.836;2023-06-19T07:26:06;96698.97;;;23.43;50.31
56142;BME280;42018;48.588;10.836;2023-06-19T07:28:52;96705.25;;;23.48;50.38
56142;BME280;42018;48.588;10.836;2023-06-19T07:31:37;96700.00;;;23.55;50.40
56142;BME280;42018;48.588;10.836;2023-06-19T07:34:23;96688.41;;;23.54;50.83
56142;BME280;42018;48.588;10.836;2023-06-19T07:37:08;96689.66;;;23.57;50.58
56142;BME280;42018;48.588;10.836;2023-06-19T07:39:54;96692.63;;;23.68;50.09
56142;BME280;42018;48.588;10.836;2023-06-19T07:42:39;96686.31;;;23.79;50.05
56142;BME280;42018;48.588;10.836;2023-06-19T07:45:25;96681.66;;;23.96;49.93
56142;BME280;42018;48.588;10.836;2023-06-19T07:48:10;96684.84;;;23.82;49.08
56142;BME280;42018;48.588;10.836;2023-06-19T07:50:55;96684.91;;;23.85;49.64
56142;BME280;42018;48.588;10.836;2023-06-19T07:53:41;96693.63;;;23.95;49.04
56142;BME280;42018;48.588;10.836;2023-06-19T07:56:28;96688.69;;;24.16;49.85
56142;BME280;42018;48.588;10.836;2023-06-19T07:59:13;96695.94;;;24.12;49.13
56142;BME280;42018;48.588;10.836;2023-06-19T08:01:59;96697.84;;;23.60;49.00
56142;BME280;42018;48.588;10.836;2023-06-19T08:04:46;96698.81;;;23.52;48.67
56142;BME280;42018;48.588;10.836;2023-06-19T08:07:31;96695.75;;;23.54;49.14
56142;BME280;42018;48.588;10.836;2023-06-19T08:10:17;96697.47;;;23.62;48.80
56142;BME280;42018;48.588;10.836;2023-06-19T08:13:02;96696.28;;;23.75;48.75
56142;BME280;42018;48.588;10.836;2023-06-19T08:15:47;96694.28;;;23.72;48.36
56142;BME280;42018;48.588;10.836;2023-06-19T08:18:33;96699.13;;;23.98;48.52
56142;BME280;42018;48.588;10.836;2023-06-19T08:21:18;96698.28;;;23.78;48.35
56142;BME280;42018;48.588;10.836;2023-06-19T08:24:06;96696.13;;;24.03;48.26
56142;BME280;42018;48.588;10.836;2023-06-19T08:26:52;96703.63;;;24.29;47.59
56142;BME280;42018;48.588;10.836;2023-06-19T08:29:37;96696.63;;;24.44;47.33
56142;BME280;42018;48.588;10.836;2023-06-19T08:32:22;96695.09;;;24.85;46.44
56142;BME280;42018;48.588;10.836;2023-06-19T08:35:08;96692.25;;;24.78;45.90
56142;BME280;42018;48.588;10.836;2023-06-19T08:37:53;96690.97;;;24.72;45.33
56142;BME280;42018;48.588;10.836;2023-06-19T08:40:41;96689.19;;;24.60;44.62
56142;BME280;42018;48.588;10.836;2023-06-19T08:43:27;96693.06;;;24.59;45.64
56142;BME280;42018;48.588;10.836;2023-06-19T08:46:17;96694.38;;;25.31;44.83
56142;BME280;42018;48.588;10.836;2023-06-19T08:49:03;96688.03;;;25.46;45.38
56142;BME280;42018;48.588;10.836;2023-06-19T08:51:51;96685.63;;;25.91;42.79
56142;BME280;42018;48.588;10.836;2023-06-19T08:54:36;96682.88;;;25.87;44.27
56142;BME280;42018;48.588;10.836;2023-06-19T08:57:37;96680.59;;;25.93;44.05
56142;BME280;42018;48.588;10.836;2023-06-19T09:00:27;96679.81;;;25.66;44.35
56142;BME280;42018;48.588;10.836;2023-06-19T09:03:20;96670.41;;;25.86;43.62
56142;BME280;42018;48.588;10.836;2023-06-19T09:06:07;96681.75;;;25.65;44.49
56142;BME280;42018;48.588;10.836;2023-06-19T09:08:59;96676.84;;;26.01;43.64
56142;BME280;42018;48.588;10.836;2023-06-19T09:14:48;96667.19;;;26.34;43.98
56142;BME280;42018;48.588;10.836;2023-06-19T09:17:33;96669.06;;;26.30;44.32
56142;BME280;42018;48.588;10.836;2023-06-19T09:20:26;96665.41;;;26.15;43.42
56142;BME280;42018;48.588;10.836;2023-06-19T09:23:13;96668.41;;;26.40;43.78
56142;BME280;42018;48.588;10.836;2023-06-19T09:25:58;96667.56;;;27.07;42.77
56142;BME280;42018;48.588;10.836;2023-06-19T09:28:44;96663.41;;;26.76;42.26
56142;BME280;42018;48.588;10.836;2023-06-19T09:31:33;96672.13;;;26.95;42.72
56142;BME280;42018;48.588;10.836;2023-06-19T09:34:19;96666.13;;;26.76;42.39
56142;BME280;42018;48.588;10.836;2023-06-19T09:37:04;96668.94;;;27.24;43.67
56142;BME280;42018;48.588;10.836;2023-06-19T09:39:56;96668.09;;;27.16;42.07
56142;BME280;42018;48.588;10.836;2023-06-19T09:42:43;96669.59;;;26.72;42.51
56142;BME280;42018;48.588;10.836;2023-06-19T09:45:29;96670.09;;;26.85;42.13
56142;BME280;42018;48.588;10.836;2023-06-19T09:48:19;96670.13;;;26.89;42.47
56142;BME280;42018;48.588;10.836;2023-06-19T09:51:19;96671.72;;;26.56;43.11
56142;BME280;42018;48.588;10.836;2023-06-19T09:54:06;96671.97;;;26.78;42.17
56142;BME280;42018;48.588;10.836;2023-06-19T09:56:55;96666.28;;;27.34;42.35
56142;BME280;42018;48.588;10.836;2023-06-19T09:59:52;96663.38;;;27.57;42.36
56142;BME280;42018;48.588;10.836;2023-06-19T10:02:40;96660.88;;;27.86;41.92
56142;BME280;42018;48.588;10.836;2023-06-19T10:05:30;96660.09;;;27.92;40.68
56142;BME280;42018;48.588;10.836;2023-06-19T10:08:46;96660.78;;;28.48;40.24
56142;BME280;42018;48.588;10.836;2023-06-19T10:11:47;96663.53;;;28.62;39.84
56142;BME280;42018;48.588;10.836;2023-06-19T10:14:33;96654.63;;;28.83;40.17
56142;BME280;42018;48.588;10.836;2023-06-19T10:17:18;96651.56;;;29.03;39.54
56142;BME280;42018;48.588;10.836;2023-06-19T10:20:04;96648.44;;;28.97;38.65
56142;BME280;42018;48.588;10.836;2023-06-19T10:23:22;96647.69;;;29.22;39.54
56142;BME280;42018;48.588;10.836;2023-06-19T10:26:15;96648.47;;;29.08;38.61
56142;BME280;42018;48.588;10.836;2023-06-19T10:29:01;96644.91;;;28.97;39.26
56142;BME280;42018;48.588;10.836;2023-06-19T10:31:46;96649.22;;;29.55;37.97
56142;BME280;42018;48.588;10.836;2023-06-19T10:34:36;96632.88;;;29.66;37.36
56142;BME280;42018;48.588;10.836;2023-06-19T10:37:31;96637.16;;;29.67;37.53
56142;BME280;42018;48.588;10.836;2023-06-19T10:40:17;96636.72;;;29.90;37.31
56142;BME280;42018;48.588;10.836;2023-06-19T10:45:49;96624.53;;;30.23;36.05
56142;BME280;42018;48.588;10.836;2023-06-19T10:48:35;96626.84;;;30.28;36.46
56142;BME280;42018;48.588;10.836;2023-06-19T10:51:20;96624.09;;;30.35;36.21
56142;BME280;42018;48.588;10.836;2023-06-19T10:54:06;96624.06;;;30.42;35.32
56142;BME280;42018;48.588;10.836;2023-06-19T10:56:52;96622.00;;;30.61;35.75
56142;BME280;42018;48.588;10.836;2023-06-19T10:59:38;96621.78;;;30.23;35.70
56142;BME280;42018;48.588;10.836;2023-06-19T11:02:25;96614.44;;;29.98;37.52
56142;BME280;42018;48.588;10.836;2023-06-19T11:05:10;96616.28;;;30.30;36.23
56142;BME280;42018;48.588;10.836;2023-06-19T11:07:58;96611.69;;;30.02;36.15
56142;BME280;42018;48.588;10.836;2023-06-19T11:10:44;96605.22;;;30.55;35.93
56142;BME280;42018;48.588;10.836;2023-06-19T11:13:29;96605.88;;;30.81;35.22
56142;BME280;42018;48.588;10.836;2023-06-19T11:16:14;96602.28;;;30.91;36.21
56142;BME280;42018;48.588;10.836;2023-06-19T11:19:00;96590.66;;;30.72;35.23
56142;BME280;42018;48.588;10.836;2023-06-19T11:21:50;96589.28;;;31.02;35.27
56142;BME280;42018;48.588;10.836;2023-06-19T11:24:36;96586.94;;;31.04;35.65
56142;BME280;42018;48.588;10.836;2023-06-19T11:27:22;96574.25;;;31.24;34.17
56142;BME280;42018;48.588;10.836;2023-06-19T11:30:13;96585.75;;;31.54;34.16
56142;BME280;42018;48.588;10.836;2023-06-19T11:32:59;96583.03;;;31.01;34.91
56142;BME280;42018;48.588;10.836;2023-06-19T11:35:50;96586.22;;;30.96;34.77
56142;BME280;42018;48.588;10.836;2023-06-19T11:38:36;96579.31;;;30.81;34.44
56142;BME280;42018;48.588;10.836;2023-06-19T11:41:27;96586.66;;;30.25;35.93
56142;BME280;42018;48.588;10.836;2023-06-19T11:44:13;96581.44;;;30.48;35.40
56142;BME280;42018;48.588;10.836;2023-06-19T11:47:00;96584.16;;;30.48;35.05
56142;BME280;42018;48.588;10.836;2023-06-19T11:49:47;96575.34;;;30.89;35.54
56142;BME280;42018;48.588;10.836;2023-06-19T11:52:33;96576.09;;;31.42;34.27
56142;BME280;42018;48.588;10.836;2023-06-19T11:55:18;96569.34;;;31.50;33.22
56142;BME280;42018;48.588;10.836;2023-06-19T11:58:04;96567.63;;;31.22;34.28
56142;BME280;42018;48.588;10.836;2023-06-19T12:00:49;96553.75;;;30.98;34.56
56142;BME280;42018;48.588;10.836;2023-06-19T12:03:34;96557.09;;;31.20;35.12
56142;BME280;42018;48.588;10.836;2023-06-19T12:06:20;96560.13;;;31.33;34.44
56142;BME280;42018;48.588;10.836;2023-06-19T12:09:05;96560.00;;;31.03;33.86
56142;BME280;42018;48.588;10.836;2023-06-19T12:11:51;96548.44;;;30.07;34.62
56142;BME280;42018;48.588;10.836;2023-06-19T12:14:36;96544.06;;;30.24;35.06
56142;BME280;42018;48.588;10.836;2023-06-19T12:17:22;96538.22;;;30.25;34.68
56142;BME280;42018;48.588;10.836;2023-06-19T12:20:08;96539.38;;;30.87;34.17
56142;BME280;42018;48.588;10.836;2023-06-19T12:22:54;96538.16;;;30.95;34.15
56142;BME280;42018;48.588;10.836;2023-06-19T12:25:40;96543.72;;;30.85;34.22
56142;BME280;42018;48.588;10.836;2023-06-19T12:28:25;96540.19;;;31.33;34.10
56142;BME280;42018;48.588;10.836;2023-06-19T12:31:10;96542.25;;;31.18;33.58
56142;BME280;42018;48.588;10.836;2023-06-19T12:33:56;96535.16;;;30.79;34.35
56142;BME280;42018;48.588;10.836;2023-06-19T12:36:41;96542.03;;;30.98;34.59
56142;BME280;42018;48.588;10.836;2023-06-19T12:39:27;96542.00;;;31.01;33.79
56142;BME280;42018;48.588;10.836;2023-06-19T12:42:13;96549.75;;;30.58;34.22
56142;BME280;42018;48.588;10.836;2023-06-19T12:44:58;96552.09;;;30.60;34.29
56142;BME280;42018;48.588;10.836;2023-06-19T12:47:44;96547.38;;;30.64;34.81
56142;BME280;42018;48.588;10.836;2023-06-19T12:50:30;96545.16;;;30.41;35.23
56142;BME280;42018;48.588;10.836;2023-06-19T12:53:15;96550.66;;;30.37;35.63
56142;BME280;42018;48.588;10.836;2023-06-19T12:56:00;96542.31;;;30.59;35.11
56142;BME280;42018;48.588;10.836;2023-06-19T12:58:46;96544.88;;;30.84;35.66
56142;BME280;42018;48.588;10.836;2023-06-19T13:01:31;96535.81;;;30.94;34.08
56142;BME280;42018;48.588;10.836;2023-06-19T13:04:16;96539.34;;;32.08;33.04
56142;BME280;42018;48.588;10.836;2023-06-19T13:07:02;96531.78;;;32.73;30.68
56142;BME280;42018;48.588;10.836;2023-06-19T13:09:48;96530.75;;;32.87;30.60
56142;BME280;42018;48.588;10.836;2023-06-19T13:12:33;96530.84;;;33.07;31.42
56142;BME280;42018;48.588;10.836;2023-06-19T13:15:18;96520.81;;;33.20;30.39
56142;BME280;42018;48.588;10.836;2023-06-19T13:18:04;96529.41;;;33.22;29.00
56142;BME280;42018;48.588;10.836;2023-06-19T13:20:49;96531.34;;;33.02;29.64
56142;BME280;42018;48.588;10.836;2023-06-19T13:23:34;96521.22;;;33.42;30.36
56142;BME280;42018;48.588;10.836;2023-06-19T13:26:20;96518.16;;;33.36;30.50
56142;BME280;42018;48.588;10.836;2023-06-19T13:29:05;96524.72;;;32.72;29.92
56142;BME280;42018;48.588;10.836;2023-06-19T13:31:51;96528.81;;;32.33;29.76
56142;BME280;42018;48.588;10.836;2023-06-19T13:34:36;96521.00;;;33.09;29.01
56142;BME280;42018;48.588;10.836;2023-06-19T13:37:21;96518.84;;;33.21;28.30
56142;BME280;42018;48.588;10.836;2023-06-19T13:40:08;96516.03;;;33.24;29.48
56142;BME280;42018;48.588;10.836;2023-06-19T13:42:54;96514.56;;;33.20;29.32
56142;BME280;42018;48.588;10.836;2023-06-19T13:45:39;96509.22;;;33.32;29.18
56142;BME280;42018;48.588;10.836;2023-06-19T13:48:25;96511.88;;;33.16;29.10
56142;BME280;42018;48.588;10.836;2023-06-19T13:51:10;96510.53;;;33.68;29.52
56142;BME280;42018;48.588;10.836;2023-06-19T13:53:55;96509.84;;;33.83;30.31
56142;BME280;42018;48.588;10.836;2023-06-19T13:56:41;96505.75;;;33.28;30.56
56142;BME280;42018;48.588;10.836;2023-06-19T13:59:27;96509.09;;;32.96;30.86
56142;BME280;42018;48.588;10.836;2023-06-19T14:02:12;96510.88;;;33.50;29.91
56142;BME280;42018;48.588;10.836;2023-06-19T14:04:58;96501.66;;;33.80;30.19
56142;BME280;42018;48.588;10.836;2023-06-19T14:07:43;96504.69;;;33.22;30.63
56142;BME280;42018;48.588;10.836;2023-06-19T14:10:29;96499.28;;;33.62;29.92
56142;BME280;42018;48.588;10.836;2023-06-19T14:13:14;96498.84;;;33.83;30.78
56142;BME280;42018;48.588;10.836;2023-06-19T14:15:59;96491.72;;;33.66;29.79
56142;BME280;42018;48.588;10.836;2023-06-19T14:18:45;96491.59;;;33.73;29.71
56142;BME280;42018;48.588;10.836;2023-06-19T14:21:30;96487.31;;;33.29;32.39
56142;BME280;42018;48.588;10.836;2023-06-19T14:24:15;96492.28;;;32.90;31.30
56142;BME280;42018;48.588;10.836;2023-06-19T14:27:01;96486.91;;;32.33;31.81
56142;BME280;42018;48.588;10.836;2023-06-19T14:29:46;96472.84;;;32.31;31.65
56142;BME280;42018;48.588;10.836;2023-06-19T14:32:32;96478.88;;;32.49;32.22
56142;BME280;42018;48.588;10.836;2023-06-19T14:35:17;96475.63;;;32.54;31.71
56142;BME280;42018;48.588;10.836;2023-06-19T14:38:03;96475.47;;;32.65;31.80